Aviation Digital Data Service (ADDS)

Output produced by METARs form (1711 UTC 30 July 2014)
found at http://aviationweather.gov/adds/metars/
 
KBTV 301124Z 3012/3112 VRB03KT P6SM BCFG SCT001 BKN080 
     FM301300 18004KT P6SM SCT045 SCT080 
     FM310600 17006KT P6SM SCT045 BKN080